createdAt,value
2023-02-14T00:00:51.012Z,98803.19
2023-02-14T00:03:17.693Z,98798.91
2023-02-14T00:05:44.146Z,98798.84
2023-02-14T00:08:10.616Z,98794.31
2023-02-14T00:10:37.400Z,98804.75
2023-02-14T00:13:05.063Z,98797.78
2023-02-14T00:15:31.562Z,98798.41
2023-02-14T00:18:00.952Z,98798.13
2023-02-14T00:20:28.306Z,98796.59
2023-02-14T00:23:04.880Z,98791.41
2023-02-14T00:25:34.171Z,98781.66
2023-02-14T00:28:00.772Z,98791.03
2023-02-14T00:30:27.395Z,98790.78
2023-02-14T00:32:53.908Z,98799.31
2023-02-14T00:35:20.446Z,98801.03
2023-02-14T00:37:47.631Z,98806.28
2023-02-14T00:40:14.709Z,98806.00
2023-02-14T00:42:41.274Z,98791.94
2023-02-14T00:45:20.457Z,98810.53
2023-02-14T00:47:46.883Z,98802.84
2023-02-14T00:50:13.363Z,98808.94
2023-02-14T00:52:39.876Z,98804.59
2023-02-14T00:55:06.431Z,98803.50
2023-02-14T00:57:39.030Z,98807.00
2023-02-14T01:00:06.516Z,98802.66
2023-02-14T01:02:39.969Z,98796.75
2023-02-14T01:05:06.620Z,98803.38
2023-02-14T01:07:33.102Z,98801.44
2023-02-14T01:10:05.901Z,98800.50
2023-02-14T01:12:32.334Z,98804.72
2023-02-14T01:14:58.825Z,98801.31
2023-02-14T01:17:25.372Z,98814.13
2023-02-14T01:19:53.149Z,98804.81
2023-02-14T01:22:19.621Z,98807.88
2023-02-14T01:24:46.243Z,98794.88
2023-02-14T01:27:12.928Z,98804.00
2023-02-14T01:29:39.476Z,98804.88
2023-02-14T01:32:09.434Z,98802.56
2023-02-14T01:34:35.961Z,98804.38
2023-02-14T01:37:02.417Z,98799.06
2023-02-14T01:39:28.871Z,98797.00
2023-02-14T01:41:56.597Z,98792.38
2023-02-14T01:44:30.912Z,98799.03
2023-02-14T01:47:00.600Z,98800.78
2023-02-14T01:49:35.622Z,98794.88
2023-02-14T01:52:08.275Z,98780.94
2023-02-14T01:54:41.567Z,98771.56
2023-02-14T01:57:13.563Z,98767.03
2023-02-14T01:59:47.471Z,98769.31
2023-02-14T02:02:14.094Z,98772.69
2023-02-14T02:04:45.433Z,98788.69
2023-02-14T02:07:17.525Z,98780.84
2023-02-14T02:09:49.248Z,98781.13
2023-02-14T02:12:15.797Z,98783.03
2023-02-14T02:14:44.170Z,98781.13
2023-02-14T02:18:15.050Z,98768.25
2023-02-14T02:21:02.072Z,98775.53
2023-02-14T02:24:10.567Z,98777.38
2023-02-14T02:26:51.291Z,98774.38
2023-02-14T02:29:20.793Z,98772.81
2023-02-14T02:32:09.206Z,98773.88
2023-02-14T02:35:08.238Z,98774.44
2023-02-14T02:38:07.285Z,98772.66
2023-02-14T02:40:55.104Z,98765.88
2023-02-14T02:43:38.197Z,98767.53
2023-02-14T02:46:47.731Z,98765.97
2023-02-14T02:49:41.933Z,98774.09
2023-02-14T02:52:38.841Z,98764.66
2023-02-14T02:55:24.681Z,98764.19
2023-02-14T02:57:53.716Z,98778.25
2023-02-14T03:00:22.537Z,98769.47
2023-02-14T03:03:11.539Z,98768.09
2023-02-14T03:05:38.428Z,98769.66
2023-02-14T03:08:05.737Z,98771.75
2023-02-14T03:10:37.286Z,98769.75
2023-02-14T03:13:22.686Z,98770.91
2023-02-14T03:15:59.367Z,98761.16
2023-02-14T03:18:53.506Z,98768.63
2023-02-14T03:21:37.109Z,98762.06
2023-02-14T03:24:35.587Z,98764.94
2023-02-14T03:27:10.296Z,98767.69
2023-02-14T03:29:51.759Z,98763.81
2023-02-14T03:32:50.186Z,98765.50
2023-02-14T03:35:24.068Z,98759.34
2023-02-14T03:38:11.464Z,98769.97
2023-02-14T03:40:49.426Z,98767.00
2023-02-14T03:43:31.823Z,98770.66
2023-02-14T03:46:01.662Z,98765.72
2023-02-14T03:48:29.028Z,98763.84
2023-02-14T03:50:57.482Z,98768.56
2023-02-14T03:53:28.350Z,98771.75
2023-02-14T03:56:19.145Z,98772.34
2023-02-14T03:58:49.641Z,98767.88
2023-02-14T04:01:23.235Z,98768.91
2023-02-14T04:03:52.570Z,98762.03
2023-02-14T04:06:20.422Z,98752.47
2023-02-14T04:08:46.912Z,98761.78
2023-02-14T04:11:13.408Z,98759.72
2023-02-14T04:13:40.042Z,98764.63
2023-02-14T04:16:07.272Z,98772.41
2023-02-14T04:18:51.953Z,98763.72
2023-02-14T04:21:19.410Z,98765.66
2023-02-14T04:23:50.819Z,98771.00
2023-02-14T04:26:17.451Z,98777.91
2023-02-14T04:28:51.863Z,98769.97
2023-02-14T04:31:18.645Z,98775.78
2023-02-14T04:33:46.042Z,98762.25
2023-02-14T04:36:15.529Z,98765.44
2023-02-14T04:38:41.973Z,98771.38
2023-02-14T04:41:08.451Z,98766.72
2023-02-14T04:43:35.296Z,98757.66
2023-02-14T04:46:01.978Z,98764.50
2023-02-14T04:48:28.398Z,98751.19
2023-02-14T04:50:55.749Z,98766.84
2023-02-14T04:53:22.700Z,98762.13
2023-02-14T04:55:50.159Z,98751.47
2023-02-14T04:58:17.175Z,98751.19
2023-02-14T05:00:52.848Z,98747.50
2023-02-14T05:03:19.293Z,98749.38
2023-02-14T05:05:46.259Z,98742.78
2023-02-14T05:08:14.412Z,98748.41
2023-02-14T05:10:41.073Z,98741.69
2023-02-14T05:13:07.594Z,98751.50
2023-02-14T05:15:38.363Z,98752.59
2023-02-14T05:18:05.750Z,98749.84
2023-02-14T05:20:35.260Z,98751.44
2023-02-14T05:23:03.478Z,98753.34
2023-02-14T05:25:43.524Z,98750.69
2023-02-14T05:28:10.653Z,98748.59
2023-02-14T05:30:40.341Z,98751.97
2023-02-14T05:33:07.093Z,98750.53
2023-02-14T05:35:33.588Z,98747.31
2023-02-14T05:38:06.305Z,98749.88
2023-02-14T05:40:33.594Z,98749.25
2023-02-14T05:43:00.323Z,98747.56
2023-02-14T05:45:38.982Z,98747.50
2023-02-14T05:48:06.186Z,98752.16
2023-02-14T05:50:32.707Z,98746.66
2023-02-14T05:52:59.469Z,98748.47
2023-02-14T05:55:26.544Z,98753.69
2023-02-14T05:57:53.000Z,98748.59
2023-02-14T06:00:20.209Z,98740.06
2023-02-14T06:02:47.603Z,98750.00
2023-02-14T06:05:15.247Z,98748.97
2023-02-14T06:08:03.475Z,98748.34
2023-02-14T06:10:30.041Z,98756.97
2023-02-14T06:12:56.924Z,98749.25
2023-02-14T06:15:23.694Z,98751.84
2023-02-14T06:18:00.143Z,98748.22
2023-02-14T06:20:27.481Z,98740.56
2023-02-14T06:22:58.286Z,98745.75
2023-02-14T06:25:25.457Z,98743.16
2023-02-14T06:27:55.454Z,98743.16
2023-02-14T06:30:22.098Z,98745.69
2023-02-14T06:32:48.587Z,98750.88
2023-02-14T06:35:25.400Z,98748.16
2023-02-14T06:37:51.798Z,98744.06
2023-02-14T06:40:19.743Z,98746.28
2023-02-14T06:42:46.410Z,98749.38
2023-02-14T06:45:12.823Z,98749.00
2023-02-14T06:47:39.349Z,98755.69
2023-02-14T06:50:06.596Z,98748.19
2023-02-14T06:52:34.169Z,98752.94
2023-02-14T06:55:06.869Z,98754.06
2023-02-14T06:57:33.311Z,98753.47
2023-02-14T06:59:59.765Z,98746.53
2023-02-14T07:02:26.288Z,98747.69
2023-02-14T07:04:52.707Z,98749.63
2023-02-14T07:07:20.156Z,98748.19
2023-02-14T07:09:46.624Z,98737.53
2023-02-14T07:12:13.524Z,98739.41
2023-02-14T07:14:52.403Z,98736.78
2023-02-14T07:17:18.864Z,98730.22
2023-02-14T07:19:45.325Z,98723.75
2023-02-14T07:22:11.825Z,98719.75
2023-02-14T07:24:38.272Z,98730.59
2023-02-14T07:27:04.711Z,98722.47
2023-02-14T07:29:41.650Z,98733.75
2023-02-14T07:32:08.324Z,98722.47
2023-02-14T07:34:34.849Z,98719.63
2023-02-14T07:37:01.611Z,98726.16
2023-02-14T07:39:28.086Z,98721.34
2023-02-14T07:41:54.670Z,98726.22
2023-02-14T07:44:21.107Z,98719.34
2023-02-14T07:46:47.494Z,98724.47
2023-02-14T07:49:13.902Z,98719.94
2023-02-14T07:51:40.336Z,98724.41
2023-02-14T07:54:06.958Z,98722.41
2023-02-14T07:56:33.760Z,98723.44
2023-02-14T07:59:00.202Z,98713.63
2023-02-14T08:01:26.700Z,98717.03
2023-02-14T08:03:53.228Z,98713.53
2023-02-14T08:06:20.376Z,98708.16
2023-02-14T08:08:50.073Z,98712.22
2023-02-14T08:11:36.570Z,98709.28
2023-02-14T08:14:04.974Z,98713.94
2023-02-14T08:16:34.321Z,98715.19
2023-02-14T08:19:01.966Z,98716.81
2023-02-14T08:21:28.481Z,98711.16
2023-02-14T08:23:54.945Z,98716.81
2023-02-14T08:26:21.411Z,98713.19
2023-02-14T08:28:53.258Z,98727.41
2023-02-14T08:31:34.340Z,98721.81
2023-02-14T08:34:01.520Z,98718.28
2023-02-14T08:36:27.922Z,98716.72
2023-02-14T08:38:55.267Z,98726.22
2023-02-14T08:41:21.660Z,98718.53
2023-02-14T08:43:53.436Z,98719.09
2023-02-14T08:46:19.884Z,98710.31
2023-02-14T08:48:46.348Z,98720.63
2023-02-14T08:51:14.965Z,98717.56
2023-02-14T08:53:42.449Z,98712.44
2023-02-14T08:56:11.474Z,98716.56
2023-02-14T08:58:40.486Z,98714.34
2023-02-14T09:01:12.348Z,98714.28
2023-02-14T09:03:42.004Z,98717.78
2023-02-14T09:06:11.257Z,98709.91
2023-02-14T09:08:39.523Z,98710.53
2023-02-14T09:11:15.726Z,98711.94
2023-02-14T09:13:43.056Z,98714.03
2023-02-14T09:16:14.261Z,98713.94
2023-02-14T09:18:40.758Z,98714.47
2023-02-14T09:21:10.443Z,98712.16
2023-02-14T09:23:37.659Z,98715.59
2023-02-14T09:26:06.935Z,98714.78
2023-02-14T09:28:35.016Z,98706.56
2023-02-14T09:31:17.001Z,98705.38
2023-02-14T09:33:44.954Z,98706.09
2023-02-14T09:36:11.412Z,98703.22
2023-02-14T09:38:37.842Z,98705.38
2023-02-14T09:41:17.579Z,98709.72
2023-02-14T09:44:02.381Z,98702.09
2023-02-14T09:46:31.043Z,98709.50
2023-02-14T09:48:58.657Z,98704.28
2023-02-14T09:51:29.178Z,98712.31
2023-02-14T09:54:14.410Z,98709.09
2023-02-14T09:57:08.840Z,98709.38
2023-02-14T09:59:50.372Z,98710.22
2023-02-14T10:02:35.186Z,98708.53
2023-02-14T10:05:22.941Z,98713.75
2023-02-14T10:08:11.208Z,98708.97
2023-02-14T10:10:43.962Z,98703.47
2023-02-14T10:13:26.655Z,98712.53
2023-02-14T10:16:10.781Z,98710.28
2023-02-14T10:18:45.860Z,98705.53
2023-02-14T10:21:25.480Z,98714.34
2023-02-14T10:24:06.848Z,98710.38
2023-02-14T10:26:40.187Z,98711.13
2023-02-14T10:29:15.328Z,98706.25
2023-02-14T10:31:55.698Z,98710.72
2023-02-14T10:34:50.397Z,98710.94
2023-02-14T10:37:35.796Z,98706.31
2023-02-14T10:40:23.776Z,98702.03
2023-02-14T10:43:06.925Z,98695.63
2023-02-14T10:45:47.556Z,98691.09
2023-02-14T10:48:47.151Z,98689.53
2023-02-14T10:51:33.510Z,98691.38
2023-02-14T10:54:19.993Z,98682.53
2023-02-14T10:56:51.903Z,98687.50
2023-02-14T10:59:19.322Z,98681.31
2023-02-14T11:01:47.066Z,98677.31
2023-02-14T11:04:16.967Z,98678.19
2023-02-14T11:06:50.608Z,98673.59
2023-02-14T11:09:18.547Z,98676.97
2023-02-14T11:11:58.229Z,98672.00
2023-02-14T11:14:26.358Z,98673.91
2023-02-14T11:16:54.805Z,98672.53
2023-02-14T11:19:38.863Z,98667.38
2023-02-14T11:22:06.105Z,98655.78
2023-02-14T11:24:41.662Z,98662.19
2023-02-14T11:27:17.990Z,98651.59
2023-02-14T11:29:48.213Z,98644.88
2023-02-14T11:32:16.480Z,98649.44
2023-02-14T11:35:04.721Z,98653.09
2023-02-14T11:37:43.754Z,98654.84
2023-02-14T11:40:25.617Z,98649.19
2023-02-14T11:43:02.178Z,98642.72
2023-02-14T11:45:34.189Z,98649.00
2023-02-14T11:48:13.057Z,98646.00
2023-02-14T11:50:42.078Z,98639.75
2023-02-14T11:53:12.728Z,98646.84
2023-02-14T11:55:39.863Z,98638.47
2023-02-14T11:58:07.941Z,98649.50
2023-02-14T12:00:35.165Z,98642.19
2023-02-14T12:03:06.472Z,98633.31
2023-02-14T12:05:46.908Z,98633.84
2023-02-14T12:08:13.605Z,98633.53
2023-02-14T12:10:44.091Z,98624.56
2023-02-14T12:13:10.489Z,98624.56
2023-02-14T12:15:42.226Z,98621.66
2023-02-14T12:18:42.492Z,98622.19
2023-02-14T12:21:48.341Z,98618.13
2023-02-14T12:24:25.959Z,98618.13
2023-02-14T12:27:23.368Z,98613.69
2023-02-14T12:29:59.163Z,98602.56
2023-02-14T12:32:30.582Z,98606.75
2023-02-14T12:35:14.103Z,98612.84
2023-02-14T12:37:48.771Z,98611.06
2023-02-14T12:40:25.516Z,98601.78
2023-02-14T12:43:09.945Z,98596.59
2023-02-14T12:46:06.312Z,98593.22
2023-02-14T12:48:49.303Z,98591.00
2023-02-14T12:51:34.588Z,98589.78
2023-02-14T12:54:15.552Z,98584.91
2023-02-14T12:56:58.362Z,98576.38
2023-02-14T13:00:00.218Z,98580.25
2023-02-14T13:02:46.064Z,98578.09
2023-02-14T13:05:41.874Z,98571.72
2023-02-14T13:08:32.990Z,98566.53
2023-02-14T13:11:18.942Z,98570.38
2023-02-14T13:14:16.151Z,98567.78
2023-02-14T13:17:23.199Z,98565.34
2023-02-14T13:20:24.856Z,98556.31
2023-02-14T13:22:58.217Z,98554.63
2023-02-14T13:25:33.537Z,98554.63
2023-02-14T13:28:03.633Z,98561.31
2023-02-14T13:30:38.549Z,98549.09
2023-02-14T13:33:17.705Z,98538.88
2023-02-14T13:35:44.409Z,98546.25
2023-02-14T13:38:21.684Z,98540.47
2023-02-14T13:40:48.892Z,98548.81
2023-02-14T13:43:56.229Z,98547.34
2023-02-14T13:46:31.878Z,98541.38
2023-02-14T13:49:15.953Z,98535.00
2023-02-14T13:51:51.407Z,98539.56
2023-02-14T13:54:32.704Z,98536.69
2023-02-14T13:57:02.144Z,98539.53
2023-02-14T13:59:34.035Z,98534.00
2023-02-14T14:02:19.357Z,98528.72
2023-02-14T14:04:45.827Z,98528.66
2023-02-14T14:07:22.117Z,98535.09
2023-02-14T14:09:54.781Z,98524.03
2023-02-14T14:12:27.302Z,98524.13
2023-02-14T14:15:13.264Z,98536.19
2023-02-14T14:17:45.981Z,98526.66
2023-02-14T14:20:21.440Z,98528.16
2023-02-14T14:22:50.810Z,98524.91
2023-02-14T14:25:41.627Z,98522.69
2023-02-14T14:28:23.064Z,98521.78
2023-02-14T14:30:50.109Z,98520.69
2023-02-14T14:33:26.936Z,98523.19
2023-02-14T14:36:02.852Z,98524.88
2023-02-14T14:38:32.359Z,98524.78
2023-02-14T14:41:00.799Z,98514.66
2023-02-14T14:43:33.871Z,98510.66
2023-02-14T14:46:02.413Z,98515.38
2023-02-14T14:48:32.754Z,98519.56
2023-02-14T14:51:00.653Z,98512.47
2023-02-14T14:53:47.451Z,98505.69
2023-02-14T14:56:20.997Z,98498.72
2023-02-14T14:58:47.951Z,98495.44
2023-02-14T15:01:28.216Z,98500.16
2023-02-14T15:03:54.963Z,98501.75
2023-02-14T15:06:23.477Z,98493.81
2023-02-14T15:08:51.417Z,98492.63
2023-02-14T15:11:46.502Z,98499.44
2023-02-14T15:14:18.148Z,98491.38
2023-02-14T15:16:48.593Z,98491.91
2023-02-14T15:19:23.540Z,98492.88
2023-02-14T15:21:55.983Z,98488.75
2023-02-14T15:24:22.744Z,98487.84
2023-02-14T15:26:51.003Z,98490.34
2023-02-14T15:29:22.650Z,98486.09
2023-02-14T15:31:51.045Z,98482.66
2023-02-14T15:34:24.901Z,98485.50
2023-02-14T15:37:03.468Z,98483.56
2023-02-14T15:39:37.005Z,98489.81
2023-02-14T15:42:05.868Z,98486.41
2023-02-14T15:44:32.575Z,98488.19
2023-02-14T15:47:02.206Z,98488.28
2023-02-14T15:49:36.257Z,98494.47
2023-02-14T15:52:05.661Z,98483.00
2023-02-14T15:54:41.668Z,98483.00
2023-02-14T15:57:19.692Z,98482.06
2023-02-14T15:59:47.071Z,98482.06
2023-02-14T16:02:37.803Z,98485.09
2023-02-14T16:05:17.343Z,98475.28
2023-02-14T16:08:22.704Z,98478.94
2023-02-14T16:11:02.847Z,98473.97
2023-02-14T16:13:41.963Z,98477.22
2023-02-14T16:16:24.491Z,98474.41
2023-02-14T16:18:54.865Z,98482.13
2023-02-14T16:21:28.063Z,98481.34
2023-02-14T16:24:06.844Z,98485.59
2023-02-14T16:26:42.565Z,98484.84
2023-02-14T16:29:11.800Z,98478.84
2023-02-14T16:32:01.204Z,98487.41
2023-02-14T16:34:31.078Z,98485.13
2023-02-14T16:36:57.595Z,98489.91
2023-02-14T16:39:25.085Z,98489.38
2023-02-14T16:41:54.496Z,98491.84
2023-02-14T16:44:21.071Z,98485.34
2023-02-14T16:46:53.188Z,98485.47
2023-02-14T16:49:30.766Z,98484.78
2023-02-14T16:52:16.411Z,98482.13
2023-02-14T16:54:44.012Z,98490.31
2023-02-14T16:57:27.719Z,98490.50
2023-02-14T16:59:56.083Z,98493.09
2023-02-14T17:02:26.343Z,98490.22
2023-02-14T17:04:52.911Z,98498.06
2023-02-14T17:07:20.991Z,98498.34
2023-02-14T17:09:52.733Z,98493.63
2023-02-14T17:12:25.565Z,98495.38
2023-02-14T17:14:58.697Z,98496.16
2023-02-14T17:17:32.953Z,98491.72
2023-02-14T17:20:00.414Z,98501.34
2023-02-14T17:22:27.297Z,98502.72
2023-02-14T17:24:56.105Z,98501.63
2023-02-14T17:27:24.436Z,98502.09
2023-02-14T17:29:52.212Z,98502.53
2023-02-14T17:32:18.900Z,98504.00
2023-02-14T17:34:45.778Z,98510.78
2023-02-14T17:37:12.308Z,98503.06
2023-02-14T17:39:42.014Z,98504.16
2023-02-14T17:42:11.921Z,98507.13
2023-02-14T17:44:38.848Z,98506.53
2023-02-14T17:47:08.578Z,98497.75
2023-02-14T17:49:35.043Z,98499.75
2023-02-14T17:52:06.039Z,98500.50
2023-02-14T17:54:37.471Z,98506.03
2023-02-14T17:57:04.977Z,98505.69
2023-02-14T17:59:38.326Z,98500.19
2023-02-14T18:02:07.112Z,98493.91
2023-02-14T18:04:37.267Z,98501.03
2023-02-14T18:07:04.978Z,98491.97
2023-02-14T18:09:32.529Z,98503.84
2023-02-14T18:11:59.391Z,98498.28
2023-02-14T18:14:28.111Z,98496.56
2023-02-14T18:16:56.843Z,98494.16
2023-02-14T18:19:32.193Z,98497.31
2023-02-14T18:22:01.925Z,98491.16
2023-02-14T18:24:34.115Z,98501.88
2023-02-14T18:27:02.994Z,98490.94
2023-02-14T18:29:31.848Z,98499.59
2023-02-14T18:31:59.793Z,98497.94
2023-02-14T18:34:26.678Z,98493.97
2023-02-14T18:36:55.542Z,98492.31
2023-02-14T18:39:23.376Z,98492.91
2023-02-14T18:41:49.857Z,98495.69
2023-02-14T18:44:18.380Z,98497.50
2023-02-14T18:46:51.757Z,98494.97
2023-02-14T18:49:18.204Z,98495.16
2023-02-14T18:51:44.743Z,98495.78
2023-02-14T18:54:11.182Z,98491.38
2023-02-14T18:56:38.762Z,98485.75
2023-02-14T18:59:08.701Z,98487.75
2023-02-14T19:01:44.813Z,98486.22
2023-02-14T19:04:13.342Z,98479.88
2023-02-14T19:06:41.433Z,98482.09
2023-02-14T19:09:11.282Z,98478.47
2023-02-14T19:11:38.395Z,98475.88
2023-02-14T19:14:09.945Z,98475.44
2023-02-14T19:16:51.921Z,98481.47
2023-02-14T19:19:24.704Z,98477.00
2023-02-14T19:21:51.604Z,98476.72
2023-02-14T19:24:19.783Z,98476.59
2023-02-14T19:26:49.411Z,98463.50
2023-02-14T19:29:18.250Z,98468.47
2023-02-14T19:31:48.442Z,98475.63
2023-02-14T19:34:22.937Z,98471.13
2023-02-14T19:36:52.649Z,98465.25
2023-02-14T19:39:21.002Z,98478.41
2023-02-14T19:41:47.915Z,98475.47
2023-02-14T19:44:15.606Z,98470.50
2023-02-14T19:46:43.736Z,98465.94
2023-02-14T19:49:16.796Z,98477.84
2023-02-14T19:51:43.732Z,98464.13
2023-02-14T19:54:12.922Z,98465.56
2023-02-14T19:56:43.137Z,98469.75
2023-02-14T19:59:10.311Z,98466.94
2023-02-14T20:01:42.892Z,98474.78
2023-02-14T20:04:14.682Z,98471.97
2023-02-14T20:06:42.346Z,98464.44
2023-02-14T20:09:11.655Z,98471.13
2023-02-14T20:11:46.466Z,98472.22
2023-02-14T20:14:14.579Z,98471.06
2023-02-14T20:16:42.052Z,98470.47
2023-02-14T20:19:13.604Z,98474.75
2023-02-14T20:21:42.166Z,98469.66
2023-02-14T20:24:12.585Z,98468.69
2023-02-14T20:26:41.589Z,98467.78
2023-02-14T20:29:09.999Z,98472.53
2023-02-14T20:31:40.388Z,98459.13
2023-02-14T20:34:07.421Z,98459.75
2023-02-14T20:36:37.692Z,98472.53
2023-02-14T20:39:06.681Z,98456.44
2023-02-14T20:41:36.517Z,98451.00
2023-02-14T20:44:07.363Z,98452.53
2023-02-14T20:46:35.672Z,98441.41
2023-02-14T20:49:05.452Z,98443.88
2023-02-14T20:51:32.755Z,98451.97
2023-02-14T20:53:59.428Z,98441.59
2023-02-14T20:56:25.886Z,98447.50
2023-02-14T20:58:56.349Z,98433.13
2023-02-14T21:01:24.562Z,98439.69
2023-02-14T21:03:54.044Z,98440.19
2023-02-14T21:06:26.387Z,98438.28
2023-02-14T21:08:53.164Z,98438.84
2023-02-14T21:11:21.104Z,98432.84
2023-02-14T21:13:48.033Z,98423.94
2023-02-14T21:16:20.142Z,98427.31
2023-02-14T21:18:52.456Z,98429.72
2023-02-14T21:21:23.380Z,98426.69
2023-02-14T21:23:51.264Z,98421.34
2023-02-14T21:26:19.230Z,98420.38
2023-02-14T21:28:46.199Z,98419.53
2023-02-14T21:31:15.142Z,98418.28
2023-02-14T21:33:41.681Z,98415.19
2023-02-14T21:36:12.765Z,98419.69
2023-02-14T21:38:39.877Z,98407.66
2023-02-14T21:41:12.030Z,98416.34
2023-02-14T21:43:42.367Z,98411.44
2023-02-14T21:46:13.161Z,98414.03
2023-02-14T21:48:58.784Z,98407.78
2023-02-14T21:51:25.511Z,98398.25
2023-02-14T21:53:52.531Z,98405.00
2023-02-14T21:56:21.269Z,98388.94
2023-02-14T21:58:50.455Z,98393.75
2023-02-14T22:01:26.829Z,98387.97
2023-02-14T22:03:54.690Z,98387.66
2023-02-14T22:06:22.245Z,98385.72
2023-02-14T22:08:54.447Z,98381.66
2023-02-14T22:11:21.975Z,98384.97
2023-02-14T22:13:48.604Z,98388.09
2023-02-14T22:16:17.230Z,98384.19
2023-02-14T22:18:44.699Z,98380.13
2023-02-14T22:21:14.478Z,98384.88
2023-02-14T22:23:41.380Z,98381.91
2023-02-14T22:26:13.773Z,98382.09
2023-02-14T22:28:41.929Z,98386.59
2023-02-14T22:31:12.044Z,98387.34
2023-02-14T22:33:39.446Z,98386.63
2023-02-14T22:36:07.714Z,98392.25
2023-02-14T22:38:35.490Z,98394.25
2023-02-14T22:41:10.449Z,98383.34
2023-02-14T22:43:38.506Z,98392.06
2023-02-14T22:46:11.275Z,98387.13
2023-02-14T22:48:51.598Z,98392.72
2023-02-14T22:51:24.723Z,98389.38
2023-02-14T22:53:53.368Z,98384.75
2023-02-14T22:56:28.958Z,98382.91
2023-02-14T22:59:00.951Z,98375.88
2023-02-14T23:01:48.104Z,98380.69
2023-02-14T23:04:19.342Z,98371.53
2023-02-14T23:06:48.642Z,98378.34
2023-02-14T23:09:15.522Z,98382.16
2023-02-14T23:11:43.707Z,98384.84
2023-02-14T23:14:32.670Z,98380.47
2023-02-14T23:17:17.258Z,98388.72
2023-02-14T23:20:03.721Z,98378.13
2023-02-14T23:22:36.146Z,98375.44
2023-02-14T23:25:11.614Z,98383.75
2023-02-14T23:27:42.982Z,98378.41
2023-02-14T23:30:14.155Z,98378.19
2023-02-14T23:32:41.305Z,98378.78
2023-02-14T23:35:08.526Z,98374.41
2023-02-14T23:37:41.766Z,98372.59
2023-02-14T23:40:09.945Z,98365.34
2023-02-14T23:42:47.754Z,98367.63
2023-02-14T23:45:33.086Z,98369.50
2023-02-14T23:48:05.136Z,98369.91
2023-02-14T23:50:32.686Z,98363.28
2023-02-14T23:53:00.247Z,98360.53
2023-02-14T23:55:26.720Z,98352.75
2023-02-14T23:57:53.244Z,98350.53
